首页
METAR-TAF:

METAR-TAF

机场 :

汶萊國際機場

文莱, 文莱

纬度: 04-56N, 经度: 114-56E, 海拔: 22米

当前天气观测

该预报发布于14分钟前的10:30 UTC
风速2节,风向西转西北
温度 28°C
湿度 79%
气压 1011 hPa
能见度10公里或以上
少量云层高于1500英尺
散云层高于14000英尺
多云层高于27000英尺

METAR: WBSB 211030Z 30002KT 9999 FEW015 SCT140 BKN270 28/24 Q1011 NOSIG

时间: 18:44 (10:44 UTC)

预报

该预报发布于5小时和44分钟前的05:00 UTC
预报有效从21日的 06点(UTC)到 22日的 12点(UTC)
风速8节,风向西北
能见度10公里或以上
散云层高于1400英尺
少量云层高于1500英尺, 积雨云.
多云层高于15000英尺
短暂存在
从 21日的 07点(UTC)到 21日的 09点(UTC)
能見度: 6000
小阵雨
短暂存在
从 21日的 09点(UTC)到 21日的 13点(UTC)
能見度: 8000
小雨
成为
从 21日的 12点(UTC)到 21日的 14点(UTC)
风速2节,风向东南

TAF: WBSB 210500Z 2106/2212 31008KT 9999 SCT014 FEW015CB BKN150 TEMPO 2107/2109 6000 -SHRA TEMPO 2109/2113 8000 -RA BECMG 2112/2114 14002KT

超过4000个机场的气象观测和天气预报(METAR&TAF报告)。

可查询的气象台以黄色和红色小点在地图上表示。

将鼠标移到小点上方,可查看气象台名称。

然后点击查看天气观测和预报。

如需切换地图:点击带黑十字的绿色按钮放大地图;点击带横线的绿色按钮缩小地图;或者点击绿色箭头查看邻近地区的地图。


METAR-TAF: